Time;durP1;ratioP1;P1;durP2;ratioP2;P2;SDS_P1;SDS_P2;PMS_P1;PMS_P2;Temp;Humidity;BMP_temperature;BMP_pressure;BME280_temperature;BME280_humidity;BME280_pressure;Samples;Min_cycle;Max_cycle;Signal;HPM_P1;HPM_P2
2021/05/19 00:02:22;;;;;;;2.20;1.93;;;8.50;99.90;;;;;;5033373;28;20185;-78
2021/05/19 00:04:48;;;;;;;2.87;2.67;;;8.50;99.90;;;;;;5015537;28;20177;-78
2021/05/19 00:07:13;;;;;;;5.07;2.60;;;8.40;99.90;;;;;;5033456;28;20187;-79
2021/05/19 00:09:39;;;;;;;3.87;2.77;;;8.40;99.90;;;;;;5028252;28;20298;-78
2021/05/19 00:12:05;;;;;;;3.33;2.83;;;8.40;99.90;;;;;;5035941;28;20185;-78
2021/05/19 00:14:30;;;;;;;2.43;2.33;;;8.50;99.90;;;;;;5015154;28;20191;-78
2021/05/19 00:16:56;;;;;;;2.47;2.27;;;8.40;99.90;;;;;;5013770;28;20990;-78
2021/05/19 00:19:22;;;;;;;5.07;1.77;;;8.40;99.90;;;;;;4999976;28;20200;-79
2021/05/19 00:21:48;;;;;;;3.30;3.00;;;8.40;99.90;;;;;;5004890;28;20239;-78
2021/05/19 00:24:14;;;;;;;3.13;2.83;;;8.40;99.90;;;;;;5033117;28;20274;-78
2021/05/19 00:26:40;;;;;;;3.10;2.90;;;8.50;99.90;;;;;;5014346;28;20477;-78
2021/05/19 00:29:09;;;;;;;2.73;2.53;;;8.50;99.90;;;;;;5032694;28;20410;-78
2021/05/19 00:31:35;;;;;;;2.60;2.40;;;8.50;99.90;;;;;;5031859;28;20842;-78
2021/05/19 00:34:01;;;;;;;2.67;2.20;;;8.50;99.90;;;;;;5027705;28;20529;-80
2021/05/19 00:36:27;;;;;;;3.00;2.80;;;8.50;99.90;;;;;;5032690;28;20202;-77
2021/05/19 00:38:54;;;;;;;2.57;2.37;;;8.60;99.90;;;;;;5030965;28;20337;-78
2021/05/19 00:41:20;;;;;;;2.30;2.20;;;8.60;99.90;;;;;;5033019;28;20219;-79
2021/05/19 00:43:45;;;;;;;2.90;2.70;;;8.60;99.90;;;;;;5029803;28;20443;-80
2021/05/19 00:46:11;;;;;;;2.30;2.10;;;8.60;99.90;;;;;;5026890;28;20200;-78
2021/05/19 00:48:37;;;;;;;4.43;2.63;;;8.60;99.90;;;;;;5030979;28;20257;-79
2021/05/19 00:51:04;;;;;;;2.23;2.13;;;8.60;99.90;;;;;;5032942;28;20182;-78
2021/05/19 00:53:30;;;;;;;2.53;2.33;;;8.70;99.90;;;;;;5032347;28;21035;-78
2021/05/19 00:55:55;;;;;;;2.10;2.00;;;8.70;99.90;;;;;;5029991;28;20473;-78
2021/05/19 00:58:21;;;;;;;2.60;2.33;;;8.70;99.90;;;;;;5032631;28;20446;-79
2021/05/19 01:00:47;;;;;;;2.50;2.40;;;8.80;99.90;;;;;;5030369;28;20206;-78
2021/05/19 01:03:12;;;;;;;3.47;2.10;;;8.80;99.90;;;;;;5033029;28;20468;-80
2021/05/19 01:05:43;;;;;;;1.97;1.63;;;8.80;99.90;;;;;;5030651;28;20206;-78
2021/05/19 01:10:54;;;;;;;2.33;1.73;;;8.90;99.90;;;;;;5028070;28;20454;-79
2021/05/19 01:13:20;;;;;;;3.20;2.30;;;8.90;99.90;;;;;;5014108;28;20521;-78
2021/05/19 01:15:46;;;;;;;4.20;2.47;;;8.90;99.90;;;;;;5027577;28;20510;-77
2021/05/19 01:18:12;;;;;;;3.10;2.43;;;8.90;99.90;;;;;;5032592;28;20410;-79
2021/05/19 01:20:38;;;;;;;4.13;2.13;;;9.00;99.90;;;;;;5031877;28;20459;-80
2021/05/19 01:23:05;;;;;;;2.33;2.13;;;8.90;99.90;;;;;;5031192;28;20649;-79
2021/05/19 01:25:33;;;;;;;4.57;2.17;;;9.00;99.90;;;;;;5032274;28;20434;-78
2021/05/19 01:28:00;;;;;;;2.93;2.27;;;9.00;99.90;;;;;;5029475;28;20438;-78
2021/05/19 01:30:28;;;;;;;3.50;2.20;;;9.00;99.90;;;;;;5011439;28;20455;-79
2021/05/19 01:32:54;;;;;;;2.33;2.23;;;9.00;99.90;;;;;;5027681;28;20430;-77
2021/05/19 01:35:19;;;;;;;2.63;1.77;;;9.10;99.90;;;;;;5031660;28;20475;-79
2021/05/19 01:37:46;;;;;;;8.30;2.33;;;9.10;99.90;;;;;;5014291;28;20936;-78
2021/05/19 01:40:13;;;;;;;2.13;1.90;;;9.10;99.90;;;;;;5005836;28;20195;-78
2021/05/19 01:42:40;;;;;;;1.87;1.77;;;9.10;99.90;;;;;;5031720;28;20424;-78
2021/05/19 01:45:08;;;;;;;2.00;1.90;;;9.00;99.90;;;;;;5023852;28;22280;-79
2021/05/19 01:47:47;;;;;;;2.43;2.23;;;9.00;99.90;;;;;;5031424;28;20962;-79
2021/05/19 01:50:16;;;;;;;2.60;2.37;;;9.00;99.90;;;;;;5027696;28;20453;-77
2021/05/19 01:52:43;;;;;;;2.23;2.10;;;9.00;99.90;;;;;;5011773;28;20793;-75
2021/05/19 01:55:12;;;;;;;2.13;2.03;;;9.00;99.90;;;;;;5014992;28;20467;-78
2021/05/19 01:57:39;;;;;;;2.57;2.47;;;9.00;99.90;;;;;;5031526;28;20409;-77
2021/05/19 02:00:06;;;;;;;2.37;2.20;;;9.00;99.90;;;;;;5028502;28;20532;-78
2021/05/19 02:02:32;;;;;;;2.90;2.07;;;9.00;99.90;;;;;;5030189;28;20425;-77
2021/05/19 02:04:59;;;;;;;3.77;2.60;;;9.00;99.90;;;;;;5031087;28;20427;-78
2021/05/19 02:07:25;;;;;;;3.47;2.50;;;9.00;99.90;;;;;;5029048;28;20994;-78
2021/05/19 02:09:51;;;;;;;3.63;2.30;;;9.00;99.90;;;;;;5025591;28;20553;-79
2021/05/19 02:12:17;;;;;;;3.70;2.80;;;8.90;99.90;;;;;;5007625;28;20184;-77
2021/05/19 02:14:42;;;;;;;2.90;2.70;;;8.90;99.90;;;;;;5012592;28;20217;-77
2021/05/19 02:17:08;;;;;;;2.70;2.50;;;8.90;99.90;;;;;;5028996;28;20991;-78
2021/05/19 02:19:34;;;;;;;2.20;2.00;;;8.90;99.90;;;;;;5031056;28;20644;-77
2021/05/19 02:21:59;;;;;;;4.33;2.63;;;8.90;99.90;;;;;;5031037;28;20222;-79
2021/05/19 02:24:25;;;;;;;2.90;2.70;;;9.00;99.90;;;;;;5026703;28;20228;-78
2021/05/19 02:26:51;;;;;;;3.20;2.87;;;8.90;99.90;;;;;;5026914;28;20603;-78
2021/05/19 02:29:17;;;;;;;6.03;3.83;;;8.90;99.90;;;;;;5019831;28;20188;-79
2021/05/19 02:31:44;;;;;;;5.53;3.53;;;8.80;99.90;;;;;;5029946;28;20611;-78
2021/05/19 02:34:10;;;;;;;6.73;4.53;;;8.80;99.90;;;;;;5028208;28;20458;-77
2021/05/19 02:36:36;;;;;;;8.97;3.90;;;8.80;99.90;;;;;;5012418;28;20465;-78
2021/05/19 02:39:05;;;;;;;3.33;3.10;;;8.80;99.90;;;;;;5027573;28;20442;-75
2021/05/19 02:41:31;;;;;;;6.30;2.80;;;8.70;99.90;;;;;;5028831;28;20468;-79
2021/05/19 02:43:56;;;;;;;4.57;3.30;;;8.70;99.90;;;;;;5030581;28;20504;-78
2021/05/19 02:46:21;;;;;;;3.03;2.83;;;8.70;99.90;;;;;;5012211;28;20210;-78
2021/05/19 02:48:47;;;;;;;7.77;2.70;;;8.70;99.90;;;;;;5012935;28;20176;-79
2021/05/19 02:51:13;;;;;;;2.50;2.40;;;8.70;99.90;;;;;;5028964;28;20191;-78
2021/05/19 02:53:39;;;;;;;6.10;1.80;;;8.70;99.90;;;;;;5012833;28;20734;-78
2021/05/19 02:56:05;;;;;;;3.20;2.77;;;8.70;99.90;;;;;;5028846;28;20222;-78
2021/05/19 02:58:31;;;;;;;3.23;2.80;;;8.70;99.90;;;;;;5028788;28;20441;-77
2021/05/19 03:00:57;;;;;;;2.63;2.50;;;8.70;99.90;;;;;;5028012;28;20484;-76
2021/05/19 03:03:23;;;;;;;3.00;2.80;;;8.70;99.90;;;;;;5011968;28;20488;-78
2021/05/19 03:05:48;;;;;;;3.43;3.13;;;8.70;99.90;;;;;;5012767;28;20197;-78
2021/05/19 03:08:14;;;;;;;4.03;2.53;;;8.70;99.90;;;;;;5009579;28;20241;-78
2021/05/19 03:10:40;;;;;;;2.30;2.20;;;8.70;99.90;;;;;;5028701;28;20389;-78
2021/05/19 03:13:05;;;;;;;2.60;2.40;;;8.80;99.90;;;;;;5028075;28;20195;-79
2021/05/19 03:15:31;;;;;;;1.97;1.83;;;8.80;99.90;;;;;;5029031;28;20495;-78
2021/05/19 03:17:58;;;;;;;2.50;2.30;;;8.80;99.90;;;;;;5012362;28;20548;-78
2021/05/19 03:20:24;;;;;;;6.83;2.10;;;8.70;99.90;;;;;;5029687;28;20470;-78
2021/05/19 03:22:49;;;;;;;5.80;2.33;;;8.70;99.90;;;;;;5034364;28;20768;-80
2021/05/19 03:25:15;;;;;;;2.50;2.30;;;8.70;99.90;;;;;;5032475;28;20213;-77
2021/05/19 03:27:40;;;;;;;3.07;2.10;;;8.70;99.90;;;;;;5034460;28;20350;-78
2021/05/19 03:30:10;;;;;;;3.33;2.30;;;8.70;99.90;;;;;;5027958;28;20191;-77
2021/05/19 03:32:36;;;;;;;4.37;2.40;;;8.70;99.90;;;;;;5034136;28;20314;-78
2021/05/19 03:35:04;;;;;;;3.30;2.20;;;8.70;99.90;;;;;;5013439;28;20575;-77
2021/05/19 03:37:29;;;;;;;2.50;1.93;;;8.80;99.90;;;;;;5034096;28;20171;-78
2021/05/19 03:39:55;;;;;;;3.60;3.30;;;8.80;99.90;;;;;;5032776;28;20430;-77
2021/05/19 03:42:20;;;;;;;4.47;3.27;;;8.80;99.90;;;;;;5028947;28;20239;-80
2021/05/19 03:44:46;;;;;;;4.70;2.50;;;8.80;99.90;;;;;;5032345;28;20268;-78
2021/05/19 03:47:11;;;;;;;7.50;3.53;;;8.80;99.90;;;;;;5031970;28;20625;-78
2021/05/19 03:49:39;;;;;;;6.37;4.03;;;8.80;99.90;;;;;;5015779;28;20197;-78
2021/05/19 03:52:05;;;;;;;3.80;3.30;;;8.80;99.90;;;;;;5031976;28;20569;-79
2021/05/19 03:54:33;;;;;;;3.10;2.90;;;8.80;99.90;;;;;;5014720;28;20432;-78
2021/05/19 03:57:06;;;;;;;3.50;2.67;;;8.80;99.90;;;;;;5031107;28;20887;-80
2021/05/19 03:59:32;;;;;;;5.67;2.23;;;8.80;99.90;;;;;;5031895;28;21010;-79
2021/05/19 04:01:58;;;;;;;2.60;2.40;;;8.80;99.90;;;;;;5032562;28;20460;-79
2021/05/19 04:04:24;;;;;;;3.30;2.97;;;8.80;99.90;;;;;;5030060;28;20802;-79
2021/05/19 04:06:50;;;;;;;3.63;2.70;;;8.80;99.90;;;;;;5032941;28;20212;-78
2021/05/19 04:09:15;;;;;;;3.23;3.00;;;8.80;99.90;;;;;;5030839;28;20441;-78
2021/05/19 04:11:41;;;;;;;3.23;3.00;;;8.80;99.90;;;;;;5027845;28;20199;-78
2021/05/19 04:14:07;;;;;;;3.07;2.80;;;8.80;99.90;;;;;;5032017;28;20250;-76
2021/05/19 04:16:33;;;;;;;3.00;2.70;;;8.80;99.90;;;;;;5014753;28;20475;-76
2021/05/19 04:18:59;;;;;;;2.50;2.40;;;8.90;99.90;;;;;;5030960;28;20596;-76
2021/05/19 04:21:24;;;;;;;4.77;2.67;;;8.90;99.90;;;;;;5033601;28;20213;-77
2021/05/19 04:23:50;;;;;;;3.17;2.97;;;8.90;99.90;;;;;;5033514;28;20164;-76
2021/05/19 04:26:16;;;;;;;2.70;2.50;;;9.00;99.90;;;;;;5029353;28;20213;-77
2021/05/19 04:28:41;;;;;;;5.23;2.80;;;9.00;99.90;;;;;;5033328;28;20185;-79
2021/05/19 04:31:07;;;;;;;4.17;3.20;;;9.00;99.90;;;;;;5031234;28;20193;-77
2021/05/19 04:33:33;;;;;;;6.50;3.27;;;9.00;99.90;;;;;;5032662;28;20198;-77
2021/05/19 04:35:58;;;;;;;3.33;2.93;;;9.00;99.90;;;;;;5031539;28;20550;-75
2021/05/19 04:38:24;;;;;;;2.73;2.53;;;9.00;99.90;;;;;;5031587;28;20190;-76
2021/05/19 04:40:50;;;;;;;3.67;3.30;;;9.00;99.90;;;;;;5015072;28;20716;-79
2021/05/19 04:43:17;;;;;;;8.43;2.70;;;9.00;99.90;;;;;;5031967;28;20446;-77
2021/05/19 04:45:42;;;;;;;2.53;2.33;;;9.00;99.90;;;;;;5014099;28;20674;-77
2021/05/19 04:48:08;;;;;;;4.30;3.90;;;9.00;99.90;;;;;;5011056;28;20432;-77
2021/05/19 04:50:34;;;;;;;6.13;3.47;;;9.10;99.90;;;;;;5033461;28;20185;-77
2021/05/19 04:53:00;;;;;;;2.93;2.83;;;9.10;99.90;;;;;;5029408;28;20271;-77
2021/05/19 04:55:25;;;;;;;3.80;3.37;;;9.20;99.90;;;;;;5033355;28;20898;-78
2021/05/19 04:57:51;;;;;;;5.23;3.70;;;9.20;99.90;;;;;;5031350;28;20179;-77
2021/05/19 05:00:17;;;;;;;3.67;3.37;;;9.20;99.90;;;;;;5011726;28;20326;-77
2021/05/19 05:02:43;;;;;;;3.73;3.53;;;9.20;99.90;;;;;;5012902;28;20192;-76
2021/05/19 05:05:09;;;;;;;2.93;2.77;;;9.30;99.90;;;;;;5030252;28;20463;-76
2021/05/19 05:07:35;;;;;;;2.83;2.63;;;9.30;99.90;;;;;;5032670;28;20179;-77
2021/05/19 05:10:02;;;;;;;3.23;3.00;;;9.30;99.90;;;;;;5013400;28;20436;-76
2021/05/19 05:12:28;;;;;;;5.17;3.40;;;9.40;99.90;;;;;;5025608;28;20222;-77
2021/05/19 05:14:54;;;;;;;3.40;3.20;;;9.40;99.90;;;;;;5027352;28;20458;-76
2021/05/19 05:17:19;;;;;;;3.60;3.40;;;9.50;99.90;;;;;;5032192;28;20188;-76
2021/05/19 05:19:45;;;;;;;3.63;3.30;;;9.50;99.90;;;;;;5031025;28;20181;-76
2021/05/19 05:22:11;;;;;;;3.17;2.97;;;9.60;99.90;;;;;;5028692;28;20272;-75
2021/05/19 05:24:36;;;;;;;11.13;3.97;;;9.70;99.90;;;;;;5029995;28;20209;-75
2021/05/19 05:27:03;;;;;;;3.80;3.43;;;9.70;99.90;;;;;;5030066;28;20845;-75
2021/05/19 05:29:29;;;;;;;4.10;3.80;;;9.80;99.90;;;;;;5032143;28;20587;-75
2021/05/19 05:31:54;;;;;;;5.53;3.97;;;9.90;99.90;;;;;;5011460;28;20448;-76
2021/05/19 05:34:20;;;;;;;4.67;4.03;;;10.00;99.90;;;;;;5028590;28;20238;-75
2021/05/19 05:36:46;;;;;;;3.67;3.37;;;10.10;99.90;;;;;;5028796;28;20260;-76
2021/05/19 05:39:11;;;;;;;6.40;3.73;;;10.20;99.90;;;;;;5031180;28;20688;-76
2021/05/19 05:41:37;;;;;;;3.70;3.40;;;10.30;99.90;;;;;;5030063;28;20216;-77
2021/05/19 05:44:03;;;;;;;3.47;3.17;;;10.40;99.90;;;;;;5008749;28;20180;-76
2021/05/19 05:46:29;;;;;;;6.43;3.67;;;10.60;99.90;;;;;;5024598;28;20209;-76
2021/05/19 05:48:57;;;;;;;3.93;3.63;;;10.70;99.90;;;;;;5013837;28;20872;-77
2021/05/19 05:51:23;;;;;;;4.20;3.80;;;10.80;99.90;;;;;;5013340;28;20196;-76
2021/05/19 05:53:48;;;;;;;4.50;4.10;;;11.00;99.90;;;;;;5029145;28;20949;-76
2021/05/19 05:56:14;;;;;;;5.63;5.13;;;11.40;99.90;;;;;;5013085;28;20637;-77
2021/05/19 05:58:39;;;;;;;3.23;3.03;;;12.20;99.90;;;;;;5029341;28;20227;-77
2021/05/19 06:01:05;;;;;;;3.97;3.67;;;12.30;99.90;;;;;;5012107;28;20315;-76
2021/05/19 06:03:30;;;;;;;3.20;3.00;;;12.10;99.90;;;;;;5043778;28;20616;-76
2021/05/19 06:05:56;;;;;;;4.40;3.20;;;12.20;99.90;;;;;;5046241;28;20570;-76
2021/05/19 06:08:21;;;;;;;3.73;3.37;;;12.70;99.90;;;;;;5028310;28;20232;-72
2021/05/19 06:10:47;;;;;;;3.70;3.50;;;13.30;99.90;;;;;;5021747;28;20190;-70
2021/05/19 06:13:12;;;;;;;3.80;3.50;;;13.80;99.90;;;;;;5020505;28;20245;-72
2021/05/19 06:15:38;;;;;;;4.57;3.60;;;14.00;99.90;;;;;;5021104;28;20348;-72
2021/05/19 06:18:04;;;;;;;3.40;3.20;;;14.40;99.90;;;;;;5026388;28;20313;-73
2021/05/19 06:20:29;;;;;;;3.30;3.10;;;14.70;99.90;;;;;;5027425;28;20913;-72
2021/05/19 06:22:55;;;;;;;8.30;3.33;;;14.90;99.90;;;;;;5036444;28;20683;-72
2021/05/19 06:25:20;;;;;;;4.67;3.13;;;15.10;99.90;;;;;;5029760;28;20202;-72
2021/05/19 06:27:46;;;;;;;3.07;2.87;;;15.30;99.90;;;;;;5024579;28;20194;-72
2021/05/19 06:30:12;;;;;;;3.17;2.27;;;15.60;99.90;;;;;;5021287;28;20591;-73
2021/05/19 06:32:38;;;;;;;4.13;2.33;;;15.90;99.90;;;;;;5020090;28;20185;-73
2021/05/19 06:35:04;;;;;;;2.70;2.60;;;15.80;99.90;;;;;;5024222;28;20456;-71
2021/05/19 06:37:29;;;;;;;9.80;3.53;;;15.70;99.90;;;;;;5027300;28;20193;-72
2021/05/19 06:39:55;;;;;;;2.83;2.73;;;15.50;99.90;;;;;;5024986;28;20521;-71
2021/05/19 06:42:20;;;;;;;4.17;3.10;;;15.80;99.90;;;;;;5030156;28;20216;-72
2021/05/19 06:44:46;;;;;;;3.30;3.10;;;15.90;99.90;;;;;;5010299;28;20540;-72
2021/05/19 06:47:12;;;;;;;3.50;3.20;;;15.80;99.90;;;;;;5029978;28;20206;-72
2021/05/19 06:49:38;;;;;;;4.03;3.30;;;15.60;99.90;;;;;;5024983;28;21122;-72
2021/05/19 06:52:04;;;;;;;4.47;3.50;;;15.30;99.90;;;;;;5026373;28;20217;-72
2021/05/19 06:54:29;;;;;;;8.00;3.00;;;15.00;99.90;;;;;;5029639;28;20281;-72
2021/05/19 06:56:55;;;;;;;7.70;3.87;;;14.60;99.90;;;;;;5014903;28;20560;-72
2021/05/19 06:59:21;;;;;;;3.60;3.30;;;14.40;99.90;;;;;;5036764;28;20205;-73
2021/05/19 07:01:47;;;;;;;4.07;3.60;;;14.20;99.90;;;;;;5023285;28;20546;-71
2021/05/19 07:04:14;;;;;;;2.90;2.70;;;14.40;99.90;;;;;;5032018;28;20417;-71
2021/05/19 07:06:40;;;;;;;4.63;3.47;;;14.40;99.90;;;;;;5029696;28;20758;-72
2021/05/19 07:09:06;;;;;;;5.00;3.33;;;14.80;99.90;;;;;;5020735;28;20930;-72
2021/05/19 07:11:33;;;;;;;3.20;2.90;;;15.20;99.90;;;;;;5025721;28;20451;-71
2021/05/19 07:14:00;;;;;;;2.97;2.60;;;15.20;99.90;;;;;;5029042;28;20447;-72
2021/05/19 07:16:26;;;;;;;3.97;2.73;;;15.50;99.90;;;;;;5032101;28;20551;-72
2021/05/19 07:18:55;;;;;;;3.27;2.97;;;15.80;99.90;;;;;;5007679;28;20520;-72
2021/05/19 07:21:21;;;;;;;2.90;2.70;;;15.60;99.90;;;;;;5025149;28;20624;-79
2021/05/19 07:23:46;;;;;;;6.10;2.80;;;15.60;99.90;;;;;;5037336;28;21110;-78
2021/05/19 07:26:12;;;;;;;4.10;2.50;;;15.20;99.90;;;;;;5028363;28;20543;-79
2021/05/19 07:28:38;;;;;;;2.73;2.53;;;15.00;99.90;;;;;;5047973;28;20182;-77
2021/05/19 07:31:04;;;;;;;4.40;3.20;;;14.50;99.90;;;;;;5038226;28;20185;-78
2021/05/19 07:33:29;;;;;;;2.90;2.70;;;14.20;99.90;;;;;;5034441;28;20215;-78
2021/05/19 07:35:55;;;;;;;2.57;1.90;;;13.70;99.90;;;;;;5036522;28;20650;-78
2021/05/19 07:38:20;;;;;;;3.10;2.60;;;13.50;99.90;;;;;;5031764;28;20186;-78
2021/05/19 07:40:46;;;;;;;2.73;2.53;;;13.20;99.90;;;;;;5031097;28;20214;-77
2021/05/19 07:43:12;;;;;;;2.40;2.27;;;13.10;99.90;;;;;;5020445;28;20182;-78
2021/05/19 07:45:38;;;;;;;5.60;2.10;;;12.90;99.90;;;;;;5036953;28;20460;-78
2021/05/19 07:48:04;;;;;;;3.13;2.73;;;12.80;99.90;;;;;;5031982;28;20193;-78
2021/05/19 07:50:30;;;;;;;5.93;2.83;;;12.80;99.90;;;;;;5015120;28;20866;-78
2021/05/19 07:52:56;;;;;;;3.53;2.57;;;12.60;99.90;;;;;;5021868;28;20486;-77
2021/05/19 07:55:27;;;;;;;4.23;2.90;;;12.60;99.90;;;;;;5026078;28;20226;-78
2021/05/19 07:58:00;;;;;;;4.30;3.50;;;12.60;99.90;;;;;;5036564;28;20977;-77
2021/05/19 08:02:51;;;;;;;8.60;2.57;;;12.80;99.90;;;;;;5028953;28;20452;-78
2021/05/19 08:05:17;;;;;;;2.50;2.30;;;13.10;99.90;;;;;;5015578;28;20208;-78
2021/05/19 08:07:43;;;;;;;4.20;2.60;;;13.40;99.90;;;;;;5032562;28;20550;-78
2021/05/19 08:10:09;;;;;;;3.50;3.10;;;13.80;99.90;;;;;;5026663;28;20185;-79
2021/05/19 08:12:35;;;;;;;5.20;3.07;;;14.10;99.90;;;;;;5031086;28;20189;-77
2021/05/19 08:15:00;;;;;;;2.60;2.40;;;14.00;99.90;;;;;;5030757;28;20495;-78
2021/05/19 08:17:26;;;;;;;3.93;3.70;;;13.90;99.90;;;;;;5033775;28;20194;-79
2021/05/19 08:19:51;;;;;;;4.10;3.27;;;14.00;99.90;;;;;;5038571;28;20236;-79
2021/05/19 08:22:17;;;;;;;3.87;2.60;;;14.00;99.90;;;;;;5031527;28;20211;-78
2021/05/19 08:24:44;;;;;;;3.57;2.47;;;14.00;99.90;;;;;;5031729;28;20178;-79
2021/05/19 08:27:10;;;;;;;5.60;2.90;;;14.20;99.90;;;;;;5032820;28;20205;-78
2021/05/19 08:29:36;;;;;;;5.53;3.17;;;14.30;99.90;;;;;;5033179;28;20413;-78
2021/05/19 08:32:01;;;;;;;6.43;3.03;;;14.40;99.90;;;;;;5013890;28;20437;-77
2021/05/19 08:34:27;;;;;;;2.23;2.03;;;14.50;99.90;;;;;;5026970;28;20237;-78
2021/05/19 08:36:53;;;;;;;3.20;2.60;;;14.70;99.90;;;;;;5040003;28;20201;-78
2021/05/19 08:39:19;;;;;;;3.23;2.93;;;14.70;99.90;;;;;;5032606;28;20194;-77
2021/05/19 08:41:47;;;;;;;2.80;2.60;;;14.70;99.90;;;;;;5015958;28;20754;-77
2021/05/19 08:44:12;;;;;;;2.47;2.27;;;14.40;99.90;;;;;;5030296;28;20468;-78
2021/05/19 08:46:46;;;;;;;2.53;1.83;;;14.30;99.90;;;;;;4986143;28;20488;-78
2021/05/19 08:49:12;;;;;;;3.60;2.97;;;14.40;99.90;;;;;;5036412;28;20531;-77
2021/05/19 08:51:38;;;;;;;3.33;2.17;;;14.50;99.90;;;;;;5028556;28;20456;-78
2021/05/19 08:54:07;;;;;;;3.93;2.30;;;14.60;99.90;;;;;;5028779;28;20467;-77
2021/05/19 08:56:39;;;;;;;2.63;2.23;;;14.90;99.90;;;;;;4998894;28;20480;-78
2021/05/19 08:59:05;;;;;;;3.20;2.43;;;15.40;99.90;;;;;;5032023;28;20960;-77
2021/05/19 09:01:40;;;;;;;3.93;2.43;;;15.90;99.90;;;;;;5035102;28;20475;-77
2021/05/19 09:04:07;;;;;;;2.40;2.20;;;16.20;99.90;;;;;;5030710;28;20216;-77
2021/05/19 09:06:34;;;;;;;7.53;2.03;;;16.30;99.90;;;;;;5013296;28;20467;-77
2021/05/19 09:08:59;;;;;;;4.47;1.90;;;16.20;99.90;;;;;;5032345;28;20419;-78
2021/05/19 09:11:25;;;;;;;2.03;1.80;;;16.40;99.90;;;;;;5024296;28;20492;-77
2021/05/19 09:13:50;;;;;;;3.80;1.90;;;16.80;99.90;;;;;;5017136;28;20234;-78
2021/05/19 09:16:29;;;;;;;4.97;2.00;;;17.10;99.90;;;;;;5032092;28;20205;-78
2021/05/19 09:18:58;;;;;;;11.50;2.43;;;17.90;99.90;;;;;;5034870;28;20197;-77
2021/05/19 09:21:41;;;;;;;2.67;1.97;;;18.00;99.90;;;;;;5038215;28;20513;-78
2021/05/19 09:24:11;;;;;;;1.33;1.20;;;17.70;99.90;;;;;;5017921;28;20780;-77
2021/05/19 09:26:58;;;;;;;2.50;1.40;;;18.00;99.90;;;;;;5042760;28;20460;-77
2021/05/19 09:29:32;;;;;;;1.20;1.00;;;18.60;99.90;;;;;;5036096;28;20439;-77
2021/05/19 09:32:05;;;;;;;1.30;0.90;;;19.00;99.90;;;;;;5032342;28;20511;-78
2021/05/19 09:34:37;;;;;;;5.97;1.20;;;19.30;99.90;;;;;;5019190;28;20446;-77
2021/05/19 09:37:20;;;;;;;5.53;1.43;;;19.60;99.90;;;;;;5011933;28;20461;-78
2021/05/19 09:39:49;;;;;;;5.50;1.27;;;19.70;99.90;;;;;;5031767;28;20494;-78
2021/05/19 09:42:17;;;;;;;1.17;0.80;;;19.60;99.90;;;;;;5031237;28;20988;-78
2021/05/19 09:44:45;;;;;;;0.93;0.93;;;20.50;99.90;;;;;;5012624;28;20437;-72
2021/05/19 09:47:11;;;;;;;1.17;0.70;;;21.00;99.90;;;;;;5029013;28;20503;-71
2021/05/19 09:49:37;;;;;;;0.77;0.70;;;21.30;99.90;;;;;;5027876;28;20432;-71
2021/05/19 09:52:14;;;;;;;3.33;0.60;;;21.80;99.90;;;;;;5031126;28;20765;-72
2021/05/19 09:54:43;;;;;;;2.70;0.90;;;22.20;99.90;;;;;;5028767;28;20192;-72
2021/05/19 09:57:13;;;;;;;1.13;1.03;;;22.40;99.90;;;;;;5028456;28;21041;-72
2021/05/19 09:59:43;;;;;;;1.30;0.70;;;22.30;99.90;;;;;;5012079;28;20423;-71
2021/05/19 10:02:09;;;;;;;0.90;0.90;;;22.10;99.90;;;;;;5027610;28;20592;-72
2021/05/19 10:04:39;;;;;;;1.73;0.70;;;21.20;99.90;;;;;;5030020;28;20412;-73
2021/05/19 10:07:16;;;;;;;1.40;0.57;;;20.50;99.90;;;;;;5031201;28;21022;-72
2021/05/19 10:09:42;;;;;;;0.60;0.40;;;20.20;99.90;;;;;;5030492;28;20420;-72
2021/05/19 10:12:08;;;;;;;1.50;0.57;;;20.50;99.90;;;;;;5024619;28;20441;-72
2021/05/19 10:14:37;;;;;;;2.43;0.70;;;21.00;99.90;;;;;;5030571;28;20267;-76
2021/05/19 10:17:10;;;;;;;1.07;0.60;;;21.30;99.90;;;;;;5013383;28;20990;-77
2021/05/19 10:20:01;;;;;;;0.70;0.60;;;22.00;99.90;;;;;;5013124;28;20512;-77
2021/05/19 10:22:28;;;;;;;1.47;0.70;;;21.30;99.90;;;;;;5009686;28;20492;-77
2021/05/19 10:25:03;;;;;;;0.80;0.60;;;21.20;99.90;;;;;;5029896;28;20424;-76
2021/05/19 10:28:03;;;;;;;1.17;0.60;;;21.80;99.90;;;;;;5028162;28;20423;-77
2021/05/19 10:30:45;;;;;;;4.30;0.70;;;21.90;99.90;;;;;;4964333;28;21030;-71
2021/05/19 10:33:29;;;;;;;3.47;0.73;;;20.90;99.90;;;;;;5028291;28;20429;-75
2021/05/19 10:35:56;;;;;;;1.63;0.60;;;20.70;99.90;;;;;;5026944;28;20460;-75
2021/05/19 10:38:29;;;;;;;5.13;1.10;;;20.40;99.90;;;;;;5028721;28;20490;-74
2021/05/19 10:40:59;;;;;;;1.00;0.60;;;20.50;99.90;;;;;;5039294;28;20461;-74
2021/05/19 10:43:44;;;;;;;1.93;0.60;;;20.50;99.90;;;;;;5035737;28;20555;-74
2021/05/19 10:46:12;;;;;;;4.33;3.20;;;20.20;99.90;;;;;;5019416;28;20480;-74
2021/05/19 10:48:38;;;;;;;1.50;1.40;;;20.10;99.90;;;;;;5030350;28;20420;-75
2021/05/19 10:51:31;;;;;;;2.33;0.83;;;20.50;99.90;;;;;;5028528;28;20446;-74
2021/05/19 11:00:24;;;;;;;5.20;0.87;;;19.80;99.90;;;;;;5013536;28;20419;-74
2021/05/19 11:02:53;;;;;;;4.53;0.80;;;19.40;99.90;;;;;;4946144;29;20455;-72
2021/05/19 11:05:23;;;;;;;3.40;0.87;;;18.90;99.90;;;;;;5012023;28;20441;-73
2021/05/19 11:08:13;;;;;;;2.40;0.70;;;18.90;99.90;;;;;;5026168;28;20431;-74
2021/05/19 11:10:51;;;;;;;2.77;0.93;;;18.60;99.90;;;;;;5028791;28;20432;-74
2021/05/19 11:13:18;;;;;;;1.23;0.70;;;18.40;99.90;;;;;;5028080;28;20517;-74
2021/05/19 11:21:00;;;;;;;1.43;0.70;;;17.70;99.90;;;;;;5030308;28;20460;-74
2021/05/19 11:23:26;;;;;;;1.50;1.00;;;18.00;99.90;;;;;;5027833;28;20524;-74
2021/05/19 11:26:14;;;;;;;2.77;0.70;;;18.60;99.90;;;;;;5012279;28;20445;-72
2021/05/19 11:28:41;;;;;;;1.03;0.97;;;19.30;99.90;;;;;;5021610;28;20524;-73
2021/05/19 11:31:17;;;;;;;1.90;0.70;;;19.60;99.90;;;;;;5023339;28;20440;-74
2021/05/19 11:33:54;;;;;;;2.73;0.80;;;19.80;99.90;;;;;;5027491;28;20453;-74
2021/05/19 11:36:47;;;;;;;2.67;0.70;;;19.90;99.90;;;;;;5029900;28;20479;-73
2021/05/19 11:39:27;;;;;;;1.40;0.60;;;20.00;99.90;;;;;;5033922;28;20433;-74
2021/05/19 11:42:08;;;;;;;1.73;0.60;;;19.80;99.90;;;;;;5028213;28;20565;-74
2021/05/19 11:44:49;;;;;;;2.43;1.37;;;19.80;99.90;;;;;;5031177;28;20429;-74
2021/05/19 11:47:20;;;;;;;1.90;1.00;;;19.80;99.90;;;;;;5029642;28;20425;-74
2021/05/19 11:49:46;;;;;;;0.97;0.87;;;19.80;99.90;;;;;;5030379;28;20428;-73
2021/05/19 11:52:12;;;;;;;0.83;0.83;;;20.00;99.90;;;;;;5038042;28;20930;-74
2021/05/19 11:54:43;;;;;;;0.90;0.60;;;19.90;99.90;;;;;;5041212;28;20494;-72
2021/05/19 11:57:10;;;;;;;1.97;0.70;;;19.90;99.90;;;;;;5031439;28;20912;-73
2021/05/19 11:59:39;;;;;;;2.03;1.10;;;19.70;99.90;;;;;;5033124;28;20428;-74
2021/05/19 12:02:04;;;;;;;2.07;0.70;;;19.50;99.90;;;;;;5029074;28;20568;-73
2021/05/19 12:04:32;;;;;;;1.57;0.90;;;19.60;99.90;;;;;;5033035;28;20500;-74
2021/05/19 12:07:02;;;;;;;2.10;1.00;;;19.80;99.90;;;;;;5031411;28;20198;-74
2021/05/19 12:09:32;;;;;;;6.20;0.93;;;19.90;99.90;;;;;;5037735;28;20428;-74
2021/05/19 12:12:15;;;;;;;1.37;0.50;;;19.70;99.90;;;;;;5032480;28;20462;-73
2021/05/19 12:14:51;;;;;;;3.80;0.70;;;19.70;99.90;;;;;;5031831;28;20487;-73
2021/05/19 12:17:21;;;;;;;2.53;1.07;;;19.60;99.90;;;;;;5029385;28;20502;-73
2021/05/19 12:19:47;;;;;;;1.90;0.90;;;19.70;99.90;;;;;;5030165;28;20551;-73
2021/05/19 12:22:21;;;;;;;3.50;1.10;;;19.60;99.90;;;;;;5032971;28;20530;-74
2021/05/19 12:24:47;;;;;;;1.70;0.70;;;19.70;99.90;;;;;;5026525;28;20231;-74
2021/05/19 12:27:18;;;;;;;0.80;0.70;;;19.80;99.90;;;;;;5033250;28;20936;-74
2021/05/19 12:29:50;;;;;;;2.13;1.20;;;19.80;99.90;;;;;;5030765;28;20436;-74
2021/05/19 12:32:25;;;;;;;2.60;0.70;;;19.60;99.90;;;;;;5023743;28;20478;-74
2021/05/19 12:35:07;;;;;;;1.53;0.60;;;19.00;99.90;;;;;;5030995;28;20448;-73
2021/05/19 12:37:53;;;;;;;1.27;0.50;;;19.10;99.90;;;;;;5030448;28;20443;-75
2021/05/19 12:40:27;;;;;;;1.27;1.13;;;19.10;99.90;;;;;;5031907;28;20439;-73
2021/05/19 12:42:59;;;;;;;1.63;0.60;;;18.70;99.90;;;;;;5014986;28;20492;-74
2021/05/19 12:45:33;;;;;;;4.40;0.83;;;18.80;99.90;;;;;;5027157;28;20997;-73
2021/05/19 12:48:20;;;;;;;1.70;0.80;;;18.60;99.90;;;;;;5029937;28;20953;-74
2021/05/19 12:50:49;;;;;;;4.53;0.73;;;18.50;99.90;;;;;;5013751;28;20452;-74
2021/05/19 12:53:40;;;;;;;4.20;1.10;;;18.60;99.90;;;;;;5033122;28;20519;-74
2021/05/19 12:56:17;;;;;;;2.03;0.70;;;18.90;99.90;;;;;;5017812;28;20547;-73
2021/05/19 12:58:57;;;;;;;2.97;0.90;;;18.70;99.90;;;;;;5030580;28;21075;-73
2021/05/19 13:01:24;;;;;;;1.00;0.80;;;18.60;99.90;;;;;;5028389;28;20475;-73
2021/05/19 13:03:49;;;;;;;1.23;0.63;;;18.90;99.90;;;;;;5032245;28;20458;-73
2021/05/19 13:06:16;;;;;;;1.90;0.90;;;18.90;99.90;;;;;;5032112;28;20449;-73
2021/05/19 13:08:41;;;;;;;1.10;0.60;;;18.80;99.90;;;;;;5015313;28;20185;-72
2021/05/19 13:11:19;;;;;;;1.77;0.90;;;18.70;99.90;;;;;;5022885;28;20436;-73
2021/05/19 13:13:46;;;;;;;2.13;0.83;;;18.90;99.90;;;;;;5013981;28;20196;-73